Amsterdam, Montana
Current Conditions -  °F | °C
As of 6:56 AM on Friday 24 Oct 2014 (Local Time) from KBZN Reporting Station
Overcast Overcast  
Wind Chill: 52°   Ceiling: 7000
Heat Index: 52°   Visibility: 10mi
Dew Point: 38°   Wind: 10mph
Humidity: 59%   Direction: 300°WNW
Pressure: 30.02"   Gusts: NA
Location:  45.7517°N, 111.347°W
Report Text: KBZN 241256Z 30009KT 10SM OVC070 11/03 A3002 RMK AO2 SLP149 T01110033
Loading
Personal Weather Stations






























Interactive Weather Map
Tropical Storm Tracking
New forecast layout! Learn more

10-Day Weather Forecast

Advertisements
Track Severe Weather on mobile